Terminal Aerodrome Forecast
Issued by NWS

Home | Current Version | Previous Version | Text Only | Print | Product List | Glossary On
Versions: 1 2 3 4 5 6 7 8 9 10 11 12 13 14 15
000
FTUS46 KPDT 202300
TAFPSC
TAF
KPSC 202335Z 2100/2124 29014G24KT P6SM BKN050 OVC090
     FM210300 23009G15KT P6SM -SHRA BKN060 OVC080
      TEMPO 2104/2108 5SM -RA BR FEW020 BKN040
     FM211000 23011KT P6SM FEW060 BKN150
     FM211500 24014G24KT P6SM SCT080
     FM212100 23013G23KT P6SM SKC=

USA.gov is the U.S. government's official web portal to all federal, state and local government web resources and services.